createdAt,value
2018-11-04T00:00:30.662Z,26.80
2018-11-04T00:03:03.119Z,24.40
2018-11-04T00:05:35.499Z,24.70
2018-11-04T00:08:07.984Z,26.83
2018-11-04T00:10:40.532Z,25.53
2018-11-04T00:13:13.790Z,24.37
2018-11-04T00:15:46.102Z,24.77
2018-11-04T00:18:18.572Z,25.23
2018-11-04T00:20:50.947Z,24.80
2018-11-04T00:23:23.415Z,22.07
2018-11-04T00:25:55.856Z,26.60
2018-11-04T00:28:28.355Z,24.87
2018-11-04T00:31:00.841Z,25.73
2018-11-04T00:33:33.191Z,28.10
2018-11-04T00:36:05.771Z,25.47
2018-11-04T00:38:38.339Z,28.17
2018-11-04T00:41:10.714Z,22.77
2018-11-04T00:43:43.147Z,23.60
2018-11-04T00:46:15.751Z,24.60
2018-11-04T00:48:48.213Z,25.30
2018-11-04T00:51:23.168Z,23.50
2018-11-04T00:53:55.650Z,23.73
2018-11-04T00:56:28.076Z,25.07
2018-11-04T00:59:00.534Z,24.17
2018-11-04T01:01:33.314Z,25.53
2018-11-04T01:04:05.747Z,25.83
2018-11-04T01:06:38.436Z,21.57
2018-11-04T01:09:10.966Z,22.53
2018-11-04T01:11:44.095Z,26.97
2018-11-04T01:14:17.551Z,25.47
2018-11-04T01:16:50.348Z,26.17
2018-11-04T01:19:22.833Z,23.90
2018-11-04T01:21:55.207Z,27.03
2018-11-04T01:24:27.718Z,21.83
2018-11-04T01:27:00.062Z,23.00
2018-11-04T01:29:32.681Z,30.37
2018-11-04T01:32:05.538Z,27.50
2018-11-04T01:34:38.416Z,24.97
2018-11-04T01:37:10.982Z,28.03
2018-11-04T01:39:45.631Z,27.87
2018-11-04T01:42:18.039Z,25.37
2018-11-04T01:44:50.499Z,24.53
2018-11-04T01:47:22.977Z,25.23
2018-11-04T01:49:55.619Z,26.27
2018-11-04T01:52:28.030Z,27.27
2018-11-04T01:55:00.438Z,26.03
2018-11-04T01:57:32.935Z,25.60
2018-11-04T02:00:09.539Z,26.97
2018-11-04T02:02:42.822Z,26.73
2018-11-04T02:05:15.674Z,25.00
2018-11-04T02:07:48.116Z,29.17
2018-11-04T02:10:20.533Z,28.03
2018-11-04T02:12:53.031Z,24.27
2018-11-04T02:15:25.501Z,27.23
2018-11-04T02:17:57.899Z,24.90
2018-11-04T02:20:30.341Z,26.30
2018-11-04T02:23:02.767Z,29.57
2018-11-04T02:25:35.177Z,28.73
2018-11-04T02:28:07.547Z,27.23
2018-11-04T02:30:40.221Z,27.90
2018-11-04T02:33:12.635Z,29.13
2018-11-04T02:35:45.180Z,29.20
2018-11-04T02:38:17.653Z,29.47
2018-11-04T02:40:50.119Z,28.50
2018-11-04T02:43:22.555Z,22.97
2018-11-04T02:45:55.069Z,25.07
2018-11-04T02:48:27.737Z,27.50
2018-11-04T02:51:00.180Z,28.53
2018-11-04T02:53:34.364Z,26.43
2018-11-04T02:56:06.783Z,25.97
2018-11-04T02:58:39.187Z,30.20
2018-11-04T03:01:11.609Z,33.47
2018-11-04T03:03:44.024Z,29.00
2018-11-04T03:06:16.681Z,31.37
2018-11-04T03:08:49.100Z,24.27
2018-11-04T03:11:21.585Z,27.93
2018-11-04T03:13:54.186Z,31.00
2018-11-04T03:16:26.579Z,29.60
2018-11-04T03:18:58.984Z,29.73
2018-11-04T03:21:31.384Z,29.30
2018-11-04T03:24:03.864Z,31.80
2018-11-04T03:26:36.309Z,32.00
2018-11-04T03:29:08.843Z,34.13
2018-11-04T03:31:41.248Z,31.07
2018-11-04T03:34:13.885Z,32.03
2018-11-04T03:36:46.291Z,28.97
2018-11-04T03:39:18.888Z,35.13
2018-11-04T03:41:51.271Z,30.27
2018-11-04T03:44:23.723Z,30.47
2018-11-04T03:46:56.252Z,32.37
2018-11-04T03:49:28.643Z,30.20
2018-11-04T03:52:01.119Z,33.67
2018-11-04T03:54:33.987Z,32.57
2018-11-04T03:57:06.787Z,31.47
2018-11-04T03:59:39.206Z,32.10
2018-11-04T04:02:11.623Z,33.27
2018-11-04T04:04:44.059Z,31.03
2018-11-04T04:07:16.475Z,32.63
2018-11-04T04:09:48.960Z,36.67
2018-11-04T04:12:21.358Z,32.27
2018-11-04T04:14:54.184Z,33.13
2018-11-04T04:17:26.594Z,31.33
2018-11-04T04:19:58.989Z,33.90
2018-11-04T04:22:31.373Z,34.10
2018-11-04T04:25:04.176Z,31.27
2018-11-04T04:27:36.726Z,32.77
2018-11-04T04:30:10.179Z,29.17
2018-11-04T04:32:42.551Z,34.07
2018-11-04T04:35:15.082Z,32.50
2018-11-04T04:37:47.500Z,34.13
2018-11-04T04:40:19.968Z,32.13
2018-11-04T04:42:52.402Z,33.03
2018-11-04T04:45:24.817Z,34.60
2018-11-04T04:47:57.499Z,34.60
2018-11-04T04:50:29.901Z,33.87
2018-11-04T04:53:02.400Z,35.07
2018-11-04T04:55:34.846Z,37.43
2018-11-04T04:58:07.282Z,36.13
2018-11-04T05:00:39.677Z,35.67
2018-11-04T05:03:12.082Z,34.87
2018-11-04T05:05:44.532Z,36.37
2018-11-04T05:08:16.981Z,35.43
2018-11-04T05:10:49.713Z,35.67
2018-11-04T05:13:22.523Z,37.43
2018-11-04T05:15:54.947Z,38.17
2018-11-04T05:18:27.691Z,36.40
2018-11-04T05:21:00.100Z,34.67
2018-11-04T05:23:32.569Z,35.67
2018-11-04T05:26:05.138Z,36.37
2018-11-04T05:28:37.861Z,36.97
2018-11-04T05:31:10.293Z,37.23
2018-11-04T05:33:42.767Z,35.33
2018-11-04T05:36:15.232Z,37.97
2018-11-04T05:38:47.978Z,40.67
2018-11-04T05:41:20.374Z,37.97
2018-11-04T05:43:52.796Z,37.80
2018-11-04T05:46:25.215Z,36.63
2018-11-04T05:48:57.719Z,39.40
2018-11-04T05:51:30.317Z,38.40
2018-11-04T05:54:02.770Z,36.30
2018-11-04T05:56:35.274Z,38.00
2018-11-04T05:59:07.683Z,37.60
2018-11-04T06:01:40.088Z,37.87
2018-11-04T06:04:12.514Z,38.27
2018-11-04T06:06:44.907Z,36.97
2018-11-04T06:09:17.702Z,39.53
2018-11-04T06:11:50.082Z,37.37
2018-11-04T06:14:22.762Z,42.40
2018-11-04T06:16:55.214Z,38.97
2018-11-04T06:19:27.751Z,40.00
2018-11-04T06:22:00.151Z,36.93
2018-11-04T06:24:32.567Z,38.30
2018-11-04T06:27:05.009Z,38.40
2018-11-04T06:29:37.426Z,41.50
2018-11-04T06:32:10.197Z,40.73
2018-11-04T06:34:42.731Z,38.13
2018-11-04T06:37:15.380Z,39.33
2018-11-04T06:39:47.763Z,39.57
2018-11-04T06:42:20.220Z,40.37
2018-11-04T06:44:52.639Z,42.60
2018-11-04T06:47:25.118Z,40.03
2018-11-04T06:49:57.532Z,38.90
2018-11-04T06:52:29.968Z,39.23
2018-11-04T06:55:02.421Z,40.97
2018-11-04T06:57:34.966Z,42.30
2018-11-04T07:00:09.059Z,42.83
2018-11-04T07:02:41.446Z,46.03
2018-11-04T07:05:13.874Z,41.57
2018-11-04T07:07:46.717Z,43.87
2018-11-04T07:10:19.265Z,39.47
2018-11-04T07:12:51.677Z,43.63
2018-11-04T07:15:24.114Z,41.57
2018-11-04T07:17:57.540Z,40.90
2018-11-04T07:20:30.088Z,43.30
2018-11-04T07:23:02.820Z,45.20
2018-11-04T07:25:35.291Z,42.87
2018-11-04T07:28:07.750Z,42.17
2018-11-04T07:30:40.139Z,50.40
2018-11-04T07:33:12.827Z,44.20
2018-11-04T07:35:45.232Z,39.70
2018-11-04T07:38:17.798Z,42.80
2018-11-04T07:40:50.188Z,40.50
2018-11-04T07:43:22.594Z,44.13
2018-11-04T07:45:55.015Z,46.70
2018-11-04T07:48:27.782Z,46.93
2018-11-04T07:51:00.157Z,42.73
2018-11-04T07:53:32.816Z,44.77
2018-11-04T07:56:05.237Z,46.73
2018-11-04T07:58:37.754Z,49.77
2018-11-04T08:01:10.247Z,49.00
2018-11-04T08:03:42.742Z,50.90
2018-11-04T08:06:15.188Z,47.63
2018-11-04T08:08:47.619Z,50.97
2018-11-04T08:11:20.038Z,57.93
2018-11-04T08:13:52.480Z,46.77
2018-11-04T08:16:24.893Z,47.57
2018-11-04T08:18:58.504Z,52.47
2018-11-04T08:21:31.066Z,51.97
2018-11-04T08:24:03.454Z,54.27
2018-11-04T08:26:35.890Z,54.87
2018-11-04T08:29:08.328Z,52.30
2018-11-04T08:31:40.779Z,53.23
2018-11-04T08:34:13.249Z,54.73
2018-11-04T08:36:45.688Z,55.47
2018-11-04T08:39:18.171Z,58.60
2018-11-04T08:41:50.630Z,61.20
2018-11-04T08:44:23.034Z,58.53
2018-11-04T08:46:55.465Z,61.37
2018-11-04T08:49:27.901Z,65.97
2018-11-04T08:52:00.321Z,59.87
2018-11-04T08:54:32.729Z,63.83
2018-11-04T08:57:05.518Z,61.67
2018-11-04T08:59:38.019Z,62.30
2018-11-04T09:02:10.431Z,61.43
2018-11-04T09:04:42.918Z,67.90
2018-11-04T09:07:15.481Z,64.83
2018-11-04T09:09:48.164Z,60.27
2018-11-04T09:12:20.653Z,69.67
2018-11-04T09:14:53.064Z,65.90
2018-11-04T09:17:25.484Z,68.97
2018-11-04T09:19:58.772Z,74.67
2018-11-04T09:22:31.223Z,66.87
2018-11-04T09:25:03.912Z,67.60
2018-11-04T09:27:37.407Z,72.70
2018-11-04T09:30:12.644Z,79.63
2018-11-04T09:32:45.142Z,69.67
2018-11-04T09:35:17.784Z,72.50
2018-11-04T09:37:50.121Z,68.80
2018-11-04T09:40:22.771Z,68.90
2018-11-04T09:42:55.389Z,74.23
2018-11-04T09:45:27.789Z,69.90
2018-11-04T09:48:00.272Z,62.60
2018-11-04T09:50:32.711Z,64.10
2018-11-04T09:53:05.245Z,71.93
2018-11-04T09:55:39.532Z,65.47
2018-11-04T09:58:12.024Z,67.67
2018-11-04T10:00:44.466Z,67.80
2018-11-04T10:03:16.907Z,64.47
2018-11-04T10:05:49.473Z,64.33
2018-11-04T10:08:22.500Z,67.80
2018-11-04T10:10:55.023Z,64.83
2018-11-04T10:13:27.753Z,65.13
2018-11-04T10:16:00.225Z,62.33
2018-11-04T10:18:32.718Z,71.90
2018-11-04T10:21:05.584Z,61.20
2018-11-04T10:23:38.396Z,64.30
2018-11-04T10:26:10.883Z,64.17
2018-11-04T10:28:43.357Z,64.13
2018-11-04T10:31:16.168Z,65.20
2018-11-04T10:33:48.539Z,67.93
2018-11-04T10:36:21.375Z,61.67
2018-11-04T10:38:54.067Z,64.47
2018-11-04T10:41:26.602Z,68.07
2018-11-04T10:43:59.028Z,66.50
2018-11-04T10:46:31.498Z,68.10
2018-11-04T10:49:04.510Z,59.60
2018-11-04T10:51:36.958Z,68.77
2018-11-04T10:54:09.433Z,67.23
2018-11-04T10:56:41.963Z,66.87
2018-11-04T10:59:14.393Z,59.77
2018-11-04T11:01:46.979Z,69.70
2018-11-04T11:04:19.426Z,68.77
2018-11-04T11:06:51.857Z,66.77
2018-11-04T11:09:25.154Z,66.70
2018-11-04T11:11:57.614Z,63.73
2018-11-04T11:14:30.120Z,66.20
2018-11-04T11:17:02.781Z,74.67
2018-11-04T11:19:36.283Z,72.37
2018-11-04T11:22:08.906Z,68.50
2018-11-04T11:24:41.369Z,72.07
2018-11-04T11:27:13.847Z,67.17
2018-11-04T11:29:46.250Z,67.50
2018-11-04T11:32:18.805Z,77.13
2018-11-04T11:34:51.277Z,72.80
2018-11-04T11:37:24.069Z,68.27
2018-11-04T11:39:56.561Z,72.50
2018-11-04T11:42:30.185Z,68.17
2018-11-04T11:45:02.749Z,66.33
2018-11-04T11:47:35.328Z,70.77
2018-11-04T11:50:08.186Z,69.33
2018-11-04T11:52:40.804Z,66.03
2018-11-04T11:55:13.494Z,68.40
2018-11-04T11:57:46.966Z,71.00
2018-11-04T12:00:19.491Z,72.97
2018-11-04T12:02:53.554Z,69.57
2018-11-04T12:05:26.064Z,73.07
2018-11-04T12:07:59.568Z,69.77
2018-11-04T12:10:32.279Z,70.93
2018-11-04T12:13:04.795Z,71.90
2018-11-04T12:15:37.352Z,72.87
2018-11-04T12:18:09.771Z,68.07
2018-11-04T12:20:42.178Z,67.07
2018-11-04T12:23:14.957Z,72.23
2018-11-04T12:25:47.502Z,65.73
2018-11-04T12:28:20.266Z,73.20
2018-11-04T12:30:52.962Z,67.23
2018-11-04T12:33:25.433Z,67.93
2018-11-04T12:35:57.945Z,67.43
2018-11-04T12:38:30.406Z,74.43
2018-11-04T12:41:02.810Z,66.67
2018-11-04T12:43:35.269Z,75.33
2018-11-04T12:46:11.661Z,70.70
2018-11-04T12:48:44.204Z,69.97
2018-11-04T12:51:16.606Z,64.47
2018-11-04T12:53:49.053Z,76.07
2018-11-04T12:56:21.533Z,76.33
2018-11-04T12:58:54.031Z,68.10
2018-11-04T13:01:26.480Z,71.10
2018-11-04T13:03:59.041Z,71.97
2018-11-04T13:06:36.233Z,68.53
2018-11-04T13:09:08.991Z,66.87
2018-11-04T13:11:41.490Z,72.93
2018-11-04T13:14:13.925Z,73.47
2018-11-04T13:16:46.296Z,74.77
2018-11-04T13:19:18.733Z,69.73
2018-11-04T13:21:51.148Z,72.43
2018-11-04T13:24:25.190Z,69.53
2018-11-04T13:26:57.679Z,69.37
2018-11-04T13:29:30.026Z,69.57
2018-11-04T13:32:02.683Z,71.30
2018-11-04T13:34:35.068Z,72.00
2018-11-04T13:37:07.588Z,71.67
2018-11-04T13:39:40.042Z,68.33
2018-11-04T13:42:12.609Z,69.33
2018-11-04T13:44:45.083Z,65.63
2018-11-04T13:47:17.537Z,69.00
2018-11-04T13:49:49.988Z,70.57
2018-11-04T13:52:22.502Z,69.73
2018-11-04T13:54:54.912Z,68.27
2018-11-04T13:57:27.390Z,72.57
2018-11-04T13:59:59.859Z,68.40
2018-11-04T14:02:32.412Z,72.83
2018-11-04T14:05:05.841Z,76.07
2018-11-04T14:07:38.998Z,76.27
2018-11-04T14:10:13.018Z,67.00
2018-11-04T14:12:45.968Z,62.90
2018-11-04T14:15:18.298Z,64.90
2018-11-04T14:17:50.735Z,70.20
2018-11-04T14:20:23.254Z,68.90
2018-11-04T14:22:55.711Z,70.90
2018-11-04T14:25:28.274Z,60.77
2018-11-04T14:28:00.667Z,70.53
2018-11-04T14:30:33.594Z,69.43
2018-11-04T14:33:05.982Z,66.20
2018-11-04T14:35:38.479Z,67.93
2018-11-04T14:38:10.902Z,66.73
2018-11-04T14:40:43.493Z,64.07
2018-11-04T14:43:15.977Z,66.40
2018-11-04T14:45:48.629Z,70.30
2018-11-04T14:48:21.171Z,68.00
2018-11-04T14:50:53.635Z,75.70
2018-11-04T14:53:26.074Z,73.47
2018-11-04T14:55:58.716Z,72.73
2018-11-04T14:58:31.303Z,66.47
2018-11-04T15:01:03.883Z,67.43
2018-11-04T15:03:36.286Z,69.73
2018-11-04T15:06:08.816Z,68.50
2018-11-04T15:08:41.238Z,74.77
2018-11-04T15:11:13.683Z,70.33
2018-11-04T15:13:46.732Z,71.13
2018-11-04T15:16:19.944Z,73.33
2018-11-04T15:18:52.571Z,67.07
2018-11-04T15:21:24.913Z,69.80
2018-11-04T15:23:57.387Z,79.13
2018-11-04T15:26:30.295Z,77.17
2018-11-04T15:29:04.133Z,78.00
2018-11-04T15:31:36.583Z,73.83
2018-11-04T15:34:09.446Z,72.63
2018-11-04T15:36:41.821Z,75.97
2018-11-04T15:39:14.234Z,76.93
2018-11-04T15:41:46.707Z,77.47
2018-11-04T15:44:19.430Z,73.07
2018-11-04T15:46:52.003Z,75.30
2018-11-04T15:49:24.614Z,77.80
2018-11-04T15:51:57.112Z,70.93
2018-11-04T15:54:29.893Z,79.77
2018-11-04T15:57:08.004Z,77.03
2018-11-04T15:59:41.591Z,80.07
2018-11-04T16:02:14.086Z,76.43
2018-11-04T16:04:46.937Z,74.33
2018-11-04T16:07:19.435Z,80.77
2018-11-04T16:09:52.022Z,83.37
2018-11-04T16:12:24.558Z,82.40
2018-11-04T16:14:57.133Z,87.13
2018-11-04T16:17:29.581Z,88.27
2018-11-04T16:20:02.156Z,85.47
2018-11-04T16:22:34.593Z,84.37
2018-11-04T16:25:07.626Z,86.10
2018-11-04T16:27:40.570Z,75.10
2018-11-04T16:30:14.156Z,82.07
2018-11-04T16:32:46.559Z,94.43
2018-11-04T16:35:19.071Z,91.97
2018-11-04T16:37:51.561Z,88.03
2018-11-04T16:40:23.967Z,84.93
2018-11-04T16:42:56.465Z,85.47
2018-11-04T16:45:28.996Z,80.47
2018-11-04T16:48:01.509Z,89.13
2018-11-04T16:50:33.961Z,81.77
2018-11-04T16:53:06.413Z,87.00
2018-11-04T16:55:38.846Z,90.10
2018-11-04T16:58:11.270Z,87.57
2018-11-04T17:00:43.714Z,83.27
2018-11-04T17:03:16.085Z,90.63
2018-11-04T17:05:48.807Z,93.60
2018-11-04T17:08:21.112Z,82.77
2018-11-04T17:10:53.593Z,89.97
2018-11-04T17:13:26.047Z,88.00
2018-11-04T17:15:58.857Z,89.93
2018-11-04T17:18:31.292Z,82.20
2018-11-04T17:21:03.807Z,88.67
2018-11-04T17:23:36.304Z,89.20
2018-11-04T17:26:08.770Z,87.27
2018-11-04T17:28:42.432Z,81.77
2018-11-04T17:31:14.913Z,82.53
2018-11-04T17:33:47.322Z,92.53
2018-11-04T17:36:19.850Z,83.23
2018-11-04T17:38:52.369Z,84.53
2018-11-04T17:41:24.872Z,83.50
2018-11-04T17:43:57.846Z,80.73
2018-11-04T17:46:30.299Z,83.80
2018-11-04T17:49:02.854Z,78.03
2018-11-04T17:51:35.349Z,72.87
2018-11-04T17:54:08.405Z,71.20
2018-11-04T17:56:40.882Z,76.73
2018-11-04T17:59:13.477Z,76.00
2018-11-04T18:01:45.974Z,71.93
2018-11-04T18:04:18.461Z,77.63
2018-11-04T18:06:51.253Z,74.40
2018-11-04T18:09:25.257Z,75.93
2018-11-04T18:11:57.719Z,83.77
2018-11-04T18:14:30.160Z,76.67
2018-11-04T18:17:02.718Z,70.87
2018-11-04T18:19:35.158Z,73.03
2018-11-04T18:22:07.605Z,70.90
2018-11-04T18:24:40.009Z,73.67
2018-11-04T18:27:12.431Z,70.60
2018-11-04T18:29:45.033Z,71.00
2018-11-04T18:32:17.831Z,77.00
2018-11-04T18:34:50.158Z,75.30
2018-11-04T18:37:23.045Z,71.97
2018-11-04T18:39:55.484Z,68.23
2018-11-04T18:42:28.010Z,76.47
2018-11-04T18:45:00.553Z,64.27
2018-11-04T18:47:33.328Z,76.07
2018-11-04T18:50:06.790Z,72.60
2018-11-04T18:52:39.414Z,65.47
2018-11-04T18:55:12.295Z,65.97
2018-11-04T18:57:44.912Z,63.83
2018-11-04T19:00:18.603Z,63.00
2018-11-04T19:02:51.130Z,64.03
2018-11-04T19:05:24.065Z,59.00
2018-11-04T19:07:56.541Z,63.87
2018-11-04T19:10:29.146Z,67.00
2018-11-04T19:13:01.958Z,62.03
2018-11-04T19:15:34.500Z,60.23
2018-11-04T19:18:07.433Z,61.00
2018-11-04T19:20:40.520Z,62.57
2018-11-04T19:23:13.134Z,57.57
2018-11-04T19:25:45.607Z,59.10
2018-11-04T19:28:18.070Z,52.87
2018-11-04T19:30:50.749Z,58.67
2018-11-04T19:33:23.323Z,52.33
2018-11-04T19:35:55.876Z,47.20
2018-11-04T19:38:28.303Z,51.07
2018-11-04T19:41:00.816Z,48.83
2018-11-04T19:43:33.334Z,52.27
2018-11-04T19:46:05.846Z,54.60
2018-11-04T19:48:38.358Z,50.57
2018-11-04T19:51:10.943Z,47.93
2018-11-04T19:53:43.360Z,54.87
2018-11-04T19:56:15.973Z,51.93
2018-11-04T19:58:48.516Z,55.80
2018-11-04T20:01:21.024Z,58.37
2018-11-04T20:03:53.598Z,55.90
2018-11-04T20:06:26.678Z,52.17
2018-11-04T20:09:04.836Z,55.90
2018-11-04T20:11:37.462Z,57.03
2018-11-04T20:14:15.550Z,58.80
2018-11-04T20:16:49.242Z,55.87
2018-11-04T20:19:27.537Z,55.80
2018-11-04T20:22:00.037Z,47.23
2018-11-04T20:26:44.086Z,44.83
2018-11-04T20:29:17.277Z,54.63
2018-11-04T20:31:55.577Z,55.07
2018-11-04T20:34:28.094Z,49.43
2018-11-04T20:37:00.585Z,52.97
2018-11-04T20:39:38.737Z,51.17
2018-11-04T20:42:11.274Z,54.53
2018-11-04T20:44:43.778Z,55.50
2018-11-04T20:47:16.316Z,51.03
2018-11-04T20:49:54.744Z,51.60
2018-11-04T20:52:27.350Z,52.73
2018-11-04T20:55:00.804Z,53.07
2018-11-04T20:57:53.273Z,51.67
2018-11-04T21:00:25.800Z,49.77
2018-11-04T21:02:58.283Z,49.20
2018-11-04T21:05:30.759Z,50.43
2018-11-04T21:08:03.281Z,52.77
2018-11-04T21:10:35.824Z,49.57
2018-11-04T21:13:08.309Z,51.00
2018-11-04T21:15:40.843Z,48.30
2018-11-04T21:18:13.308Z,47.03
2018-11-04T21:20:45.988Z,51.23
2018-11-04T21:23:18.599Z,47.80
2018-11-04T21:25:51.319Z,49.00
2018-11-04T21:28:23.777Z,48.37
2018-11-04T21:30:56.347Z,44.10
2018-11-04T21:33:28.905Z,45.47
2018-11-04T21:36:01.417Z,46.80
2018-11-04T21:38:33.940Z,47.77
2018-11-04T21:41:06.511Z,48.00
2018-11-04T21:43:39.117Z,48.40
2018-11-04T21:46:11.665Z,45.10
2018-11-04T21:48:44.758Z,48.73
2018-11-04T21:51:17.513Z,44.67
2018-11-04T21:53:50.079Z,48.47
2018-11-04T21:56:22.714Z,45.97
2018-11-04T21:58:57.259Z,45.63
2018-11-04T22:01:29.794Z,42.70
2018-11-04T22:04:02.707Z,49.13
2018-11-04T22:06:35.205Z,47.13
2018-11-04T22:09:08.113Z,48.47
2018-11-04T22:11:40.960Z,46.77
2018-11-04T22:14:13.501Z,51.43
2018-11-04T22:16:46.291Z,48.30
2018-11-04T22:19:18.791Z,50.67
2018-11-04T22:21:51.328Z,51.40
2018-11-04T22:24:23.954Z,49.00
2018-11-04T22:26:56.436Z,52.63
2018-11-04T22:29:28.902Z,57.23
2018-11-04T22:32:01.420Z,59.00
2018-11-04T22:34:34.008Z,54.23
2018-11-04T22:37:06.725Z,56.13
2018-11-04T22:39:39.279Z,56.87
2018-11-04T22:42:12.122Z,61.50
2018-11-04T22:44:44.537Z,62.63
2018-11-04T22:47:17.598Z,58.00
2018-11-04T22:49:51.040Z,61.20
2018-11-04T22:52:23.609Z,59.37
2018-11-04T22:54:56.263Z,64.50
2018-11-04T22:57:28.872Z,58.97
2018-11-04T23:00:02.133Z,57.63
2018-11-04T23:02:34.672Z,60.93
2018-11-04T23:05:12.877Z,63.60
2018-11-04T23:07:45.967Z,69.83
2018-11-04T23:10:18.406Z,68.97
2018-11-04T23:12:51.060Z,67.80
2018-11-04T23:15:23.858Z,68.73
2018-11-04T23:17:56.430Z,69.87
2018-11-04T23:20:28.898Z,89.43
2018-11-04T23:23:01.369Z,75.50
2018-11-04T23:25:33.872Z,71.27
2018-11-04T23:28:06.334Z,70.57
2018-11-04T23:30:39.054Z,71.93
2018-11-04T23:33:11.537Z,73.83
2018-11-04T23:35:44.305Z,67.53
2018-11-04T23:38:16.750Z,70.80
2018-11-04T23:40:49.234Z,71.30
2018-11-04T23:43:21.779Z,75.27
2018-11-04T23:45:54.561Z,70.67
2018-11-04T23:48:26.936Z,72.63
2018-11-04T23:50:59.388Z,65.00
2018-11-04T23:53:32.095Z,73.00
2018-11-04T23:56:06.017Z,70.03
2018-11-04T23:58:38.523Z,64.97
